Details From LOWW - Wien Schwechat
To LJLJ - Ljubljana
Flight Number -
Tags Generated
Created
Modified
Stats Distance 143 nm / 265 km
Max Altitude 0 ft / 0 m
Waypoints 2
Social Downloads 10
Likes 0
Share VATSIM

Download

Looking for another format? Having issues loading an existing format? Contact us
Advertisement - Login to hide

Notes

Generated

Route

LOWW LJLJ

ID Type Via Altitude Latitude Longitude Leg Dist Tot Dist Heading (true) Name
O LOWW APT - 0 ft / 0 m 48.11978˚ 16.57818˚ - 0 nm - -
O LJLJ APT - 0 ft / 0 m 46.23249˚ 14.44039˚ 143 nm 143 nm 218° / 217° -

Altitude Profile

Advertisement - Login to hide

LOWW

Details ICAO LOWW (VIE)
Name Wien Schwechat
Region Austria
Timezone Europe/Vienna (UTC+2.0)
Stats Elevation 600 ft / 183 m (AMSL)
Location 48.110068° 16.569637°
Runways 2
Magnetic Variation 4.309° E

METAR

LOWW 251250Z 31007KT 280V340 9999 FEW011 SCT017 BKN030 20/17 Q1018 NOSIG

Decode

TAF

TAF LOWW 251115Z 2512/2618 34005KT 9000 FEW010 BKN020 FEW030TCU TX25/2615Z TN14/2603Z TEMPO 2512/2517 03007KT 5000 SHRA FEW005 BKN010 FEW030CB PROB30 TEMPO 2513/2516 3000 +TSRA BKN005 SCT030CB FM251800 VRB02KT 6000 FEW005 BKN015 TEMPO 2520/2607 2000 BCFG SCT002 SCT020 PROB30 TEMPO 2600/2605 0600 FG VV002 FM260800 02006KT 9999 SCT030 SCT070 FM261700 VRB02KT CAVOK

Decode

Departure Runways

ID Width Length Bearing (true) Bearing (mag) Surface Threshold Offset Overrun Length
11 148 ft / 45 m 11,457 ft / 3,492 m 115.99° 111.68° Asphalt 0 ft / 0 m 0 ft / 0 m
16 148 ft / 45 m 11,811 ft / 3,600 m 164.23° 159.92° Asphalt 0 ft / 0 m 33 ft / 10 m
29 148 ft / 45 m 11,457 ft / 3,492 m 296.03° 291.72° Asphalt 0 ft / 0 m 0 ft / 0 m
34 148 ft / 45 m 11,811 ft / 3,600 m 344.24° 339.93° Asphalt 0 ft / 0 m 0 ft / 0 m

LJLJ

Details ICAO LJLJ (LJU)
Name LJUBLJANA
Region Slovenia
Timezone Europe/Ljubljana (UTC+2.0)
Stats Elevation 1,273 ft / 388 m (AMSL)
Location 46.223685° 14.457608°
Runways 1
Magnetic Variation 3.712° E

METAR

LJLJ 251300Z 11006KT 070V170 9999 FEW037TCU FEW050 23/16 Q1016 NOSIG

Decode

TAF

TAF LJLJ 250800Z 2509/2609 12005KT 9999 FEW050 TEMPO 2510/2520 SHRA SCT035TCU BKN050 PROB40 TEMPO 2511/2518 VRB10G20KT 5000 TSRA SCT030CB BKN050 BECMG 2519/2522 29003KT PROB30 TEMPO 2602/2607 0800 FG VV001

Decode

Destination Runways

ID Width Length Bearing (true) Bearing (mag) Surface Threshold Offset Overrun Length
13 148 ft / 45 m 10,811 ft / 3,295 m 126.47° 122.76° Asphalt 0 ft / 0 m 0 ft / 0 m
31 148 ft / 45 m 10,811 ft / 3,295 m 306.49° 302.78° Asphalt 0 ft / 0 m 0 ft / 0 m

Approach Navaids

Runway Type Ident Frequency Range Bearing (true) Bearing (mag) Slope Elevation
31 Localiser LJB 110.50 MHz 18 nm / 33 km 306.46° 302.75° - 1,282 ft / 391 m (AMSL)
31 Glidescope LJB 110.50 MHz 10 nm / 19 km 306.48° 302.77° 3.00° 1,198 ft / 365 m (AMSL)
31 DME LJB 110.50 MHz 18 nm / 33 km - - - 1,198 ft / 365 m (AMSL)

Popular Alternatives